createdAt,value
2017-05-08T00:00:23.625Z,51.65
2017-05-08T00:01:23.649Z,51.37
2017-05-08T00:02:23.675Z,51.56
2017-05-08T00:03:23.706Z,51.46
2017-05-08T00:04:23.731Z,51.56
2017-05-08T00:05:23.759Z,51.46
2017-05-08T00:06:23.789Z,51.65
2017-05-08T00:07:23.814Z,51.46
2017-05-08T00:08:23.843Z,51.46
2017-05-08T00:09:23.873Z,51.65
2017-05-08T00:10:23.901Z,51.37
2017-05-08T00:11:23.921Z,51.65
2017-05-08T00:12:23.950Z,51.37
2017-05-08T00:13:23.979Z,51.56
2017-05-08T00:14:24.016Z,51.46
2017-05-08T00:15:24.037Z,51.27
2017-05-08T00:16:24.060Z,51.46
2017-05-08T00:17:24.090Z,51.56
2017-05-08T00:18:24.120Z,51.56
2017-05-08T00:19:24.148Z,51.46
2017-05-08T00:20:23.860Z,51.27
2017-05-08T00:21:24.206Z,51.37
2017-05-08T00:22:24.226Z,51.46
2017-05-08T00:23:24.254Z,51.46
2017-05-08T00:24:24.289Z,51.56
2017-05-08T00:25:24.312Z,51.37
2017-05-08T00:26:24.330Z,51.46
2017-05-08T00:27:24.365Z,51.65
2017-05-08T00:28:24.395Z,51.37
2017-05-08T00:29:24.419Z,51.46
2017-05-08T00:30:24.449Z,51.46
2017-05-08T00:31:24.473Z,50.98
2017-05-08T00:32:24.504Z,51.46
2017-05-08T00:33:24.529Z,51.46
2017-05-08T00:34:24.552Z,51.46
2017-05-08T00:35:24.583Z,51.46
2017-05-08T00:36:24.612Z,51.17
2017-05-08T00:37:24.637Z,51.65
2017-05-08T00:38:24.657Z,51.37
2017-05-08T00:39:24.698Z,51.46
2017-05-08T00:40:24.711Z,50.98
2017-05-08T00:41:24.751Z,51.75
2017-05-08T00:42:24.459Z,51.46
2017-05-08T00:43:24.803Z,51.46
2017-05-08T00:44:24.865Z,51.46
2017-05-08T00:45:24.851Z,51.37
2017-05-08T00:46:24.883Z,51.56
2017-05-08T00:47:25.161Z,51.65
2017-05-08T00:48:24.932Z,51.37
2017-05-08T00:49:24.966Z,51.17
2017-05-08T00:50:24.686Z,51.37
2017-05-08T00:51:25.020Z,51.56
2017-05-08T00:52:25.301Z,51.17
2017-05-08T00:53:25.081Z,51.46
2017-05-08T00:54:25.098Z,51.56
2017-05-08T00:55:25.130Z,51.46
2017-05-08T00:56:25.160Z,51.37
2017-05-08T00:57:25.444Z,51.46
2017-05-08T00:58:25.205Z,51.46
2017-05-08T00:59:25.238Z,51.46
2017-05-08T01:00:24.951Z,51.15
2017-05-08T01:01:25.296Z,51.27
2017-05-08T01:02:25.574Z,51.65
2017-05-08T01:03:25.351Z,51.17
2017-05-08T01:04:25.382Z,51.53
2017-05-08T01:05:25.398Z,51.34
2017-05-08T01:06:25.432Z,51.17
2017-05-08T01:07:25.708Z,51.17
2017-05-08T01:08:25.515Z,51.63
2017-05-08T01:09:25.513Z,51.46
2017-05-08T01:10:25.531Z,51.17
2017-05-08T01:11:25.569Z,51.15
2017-05-08T01:12:25.282Z,51.25
2017-05-08T01:13:25.624Z,51.05
2017-05-08T01:14:25.649Z,51.17
2017-05-08T01:15:25.677Z,51.25
2017-05-08T01:16:25.703Z,51.25
2017-05-08T01:17:25.731Z,50.96
2017-05-08T01:18:25.445Z,51.07
2017-05-08T01:19:25.784Z,51.25
2017-05-08T01:20:25.813Z,51.44
2017-05-08T01:21:25.839Z,51.15
2017-05-08T01:22:25.897Z,51.17
2017-05-08T01:23:25.579Z,51.25
2017-05-08T01:24:25.928Z,51.05
2017-05-08T01:25:25.638Z,51.27
2017-05-08T01:26:25.978Z,51.05
2017-05-08T01:27:26.002Z,51.25
2017-05-08T01:28:26.032Z,51.34
2017-05-08T01:29:26.061Z,51.44
2017-05-08T01:30:25.773Z,51.15
2017-05-08T01:31:26.115Z,51.15
2017-05-08T01:32:25.829Z,51.37
2017-05-08T01:33:25.856Z,51.53
2017-05-08T01:34:26.193Z,51.15
2017-05-08T01:35:26.226Z,51.25
2017-05-08T01:36:25.938Z,51.15
2017-05-08T01:37:26.283Z,51.25
2017-05-08T01:38:25.996Z,51.25
2017-05-08T01:39:26.334Z,51.25
2017-05-08T01:40:26.365Z,51.15
2017-05-08T01:41:26.390Z,51.25
2017-05-08T01:42:26.415Z,51.34
2017-05-08T01:43:26.439Z,51.15
2017-05-08T01:44:26.477Z,51.34
2017-05-08T01:45:26.499Z,51.15
2017-05-08T01:46:26.529Z,51.44
2017-05-08T01:47:26.547Z,51.53
2017-05-08T01:48:26.268Z,51.05
2017-05-08T01:49:26.608Z,51.34
2017-05-08T01:50:26.632Z,51.05
2017-05-08T01:51:26.661Z,51.15
2017-05-08T01:52:26.686Z,51.34
2017-05-08T01:53:26.403Z,51.15
2017-05-08T01:54:26.765Z,51.34
2017-05-08T01:55:26.775Z,51.44
2017-05-08T01:56:26.797Z,51.15
2017-05-08T01:57:26.822Z,51.25
2017-05-08T01:58:27.098Z,51.53
2017-05-08T01:59:26.875Z,51.25
2017-05-08T02:00:26.592Z,51.44
2017-05-08T02:01:26.619Z,51.34
2017-05-08T02:02:26.958Z,51.15
2017-05-08T02:03:27.239Z,51.25
2017-05-08T02:04:27.008Z,51.15
2017-05-08T02:05:27.040Z,51.15
2017-05-08T02:06:27.069Z,51.15
2017-05-08T02:07:27.093Z,51.05
2017-05-08T02:08:27.369Z,51.34
2017-05-08T02:09:27.147Z,51.34
2017-05-08T02:10:26.864Z,51.34
2017-05-08T02:11:27.204Z,51.25
2017-05-08T02:12:27.230Z,51.25
2017-05-08T02:13:27.511Z,51.44
2017-05-08T02:14:27.291Z,51.25
2017-05-08T02:15:27.311Z,51.53
2017-05-08T02:16:27.027Z,51.44
2017-05-08T02:17:27.369Z,51.44
2017-05-08T02:18:27.646Z,51.05
2017-05-08T02:19:27.105Z,51.25
2017-05-08T02:20:27.451Z,51.05
2017-05-08T02:21:27.477Z,51.34
2017-05-08T02:22:27.185Z,51.15
2017-05-08T02:23:27.781Z,51.25
2017-05-08T02:24:27.563Z,50.86
2017-05-08T02:25:27.583Z,51.34
2017-05-08T02:26:27.611Z,50.86
2017-05-08T02:27:27.326Z,51.63
2017-05-08T02:28:27.667Z,50.86
2017-05-08T02:29:27.694Z,51.05
2017-05-08T02:30:27.724Z,51.34
2017-05-08T02:31:27.435Z,51.25
2017-05-08T02:32:27.778Z,51.63
2017-05-08T02:33:27.489Z,51.63
2017-05-08T02:34:27.835Z,51.53
2017-05-08T02:35:27.859Z,51.15
2017-05-08T02:36:27.884Z,51.15
2017-05-08T02:37:27.909Z,50.96
2017-05-08T02:38:27.625Z,51.34
2017-05-08T02:39:27.967Z,51.44
2017-05-08T02:40:27.995Z,50.96
2017-05-08T02:41:28.020Z,51.53
2017-05-08T02:42:28.053Z,50.86
2017-05-08T02:43:28.079Z,50.76
2017-05-08T02:44:28.102Z,50.86
2017-05-08T02:45:28.127Z,50.76
2017-05-08T02:46:28.156Z,50.96
2017-05-08T02:47:28.184Z,51.53
2017-05-08T02:48:27.893Z,51.53
2017-05-08T02:49:28.234Z,50.76
2017-05-08T02:50:28.258Z,50.86
2017-05-08T02:51:28.293Z,50.96
2017-05-08T02:52:28.320Z,50.96
2017-05-08T02:53:28.345Z,50.86
2017-05-08T02:54:28.098Z,50.96
2017-05-08T02:55:28.398Z,50.96
2017-05-08T02:56:28.427Z,51.15
2017-05-08T02:57:28.452Z,50.76
2017-05-08T02:58:28.173Z,50.76
2017-05-08T02:59:28.510Z,51.15
2017-05-08T03:00:28.534Z,50.76
2017-05-08T03:01:28.560Z,51.05
2017-05-08T03:02:28.589Z,51.15
2017-05-08T03:03:28.621Z,50.96
2017-05-08T03:04:28.643Z,50.76
2017-05-08T03:05:28.669Z,51.05
2017-05-08T03:06:28.707Z,50.96
2017-05-08T03:07:28.768Z,51.05
2017-05-08T03:08:28.449Z,51.15
2017-05-08T03:09:28.786Z,50.47
2017-05-08T03:10:28.810Z,50.96
2017-05-08T03:11:28.835Z,50.96
2017-05-08T03:12:28.868Z,51.25
2017-05-08T03:13:28.893Z,51.25
2017-05-08T03:14:28.604Z,51.34
2017-05-08T03:15:28.633Z,50.76
2017-05-08T03:16:28.971Z,51.05
2017-05-08T03:17:29.003Z,50.96
2017-05-08T03:18:28.711Z,51.15
2017-05-08T03:19:28.740Z,50.86
2017-05-08T03:20:28.770Z,51.05
2017-05-08T03:21:29.709Z,51.05
2017-05-08T03:22:28.823Z,51.05
2017-05-08T03:23:29.160Z,51.15
2017-05-08T03:24:29.189Z,51.15
2017-05-08T03:25:29.217Z,51.15
2017-05-08T03:26:29.238Z,51.05
2017-05-08T03:27:28.959Z,51.05
2017-05-08T03:28:29.299Z,51.05
2017-05-08T03:29:29.260Z,51.05
2017-05-08T03:30:29.353Z,50.96
2017-05-08T03:31:29.379Z,51.15
2017-05-08T03:32:29.411Z,51.15
2017-05-08T03:33:29.435Z,51.15
2017-05-08T03:34:29.717Z,51.05
2017-05-08T03:35:29.490Z,50.96
2017-05-08T03:36:29.511Z,51.05
2017-05-08T03:37:29.230Z,51.15
2017-05-08T03:38:29.260Z,51.15
2017-05-08T03:39:29.843Z,51.05
2017-05-08T03:40:29.309Z,50.96
2017-05-08T03:41:29.645Z,50.86
2017-05-08T03:42:29.674Z,51.05
2017-05-08T03:43:29.715Z,50.96
2017-05-08T03:44:29.985Z,51.05
2017-05-08T03:45:29.761Z,50.96
2017-05-08T03:46:29.474Z,50.96
2017-05-08T03:47:29.815Z,51.15
2017-05-08T03:48:29.840Z,51.05
2017-05-08T03:49:30.116Z,51.15
2017-05-08T03:50:29.896Z,50.96
2017-05-08T03:51:29.919Z,51.05
2017-05-08T03:52:29.950Z,51.05
2017-05-08T03:53:29.975Z,50.96
2017-05-08T03:54:30.251Z,51.05
2017-05-08T03:55:30.038Z,50.96
2017-05-08T03:56:30.057Z,51.05
2017-05-08T03:57:30.086Z,51.25
2017-05-08T03:58:30.106Z,51.15
2017-05-08T03:59:30.390Z,50.96
2017-05-08T04:00:30.201Z,50.96
2017-05-08T04:01:30.193Z,50.96
2017-05-08T04:02:30.211Z,51.15
2017-05-08T04:03:29.934Z,51.05
2017-05-08T04:04:30.218Z,50.96
2017-05-08T04:05:30.301Z,51.05
2017-05-08T04:06:30.330Z,50.96
2017-05-08T04:07:30.353Z,50.96
2017-05-08T04:08:30.378Z,50.96
2017-05-08T04:09:30.346Z,51.05
2017-05-08T04:10:30.126Z,50.93
2017-05-08T04:11:30.463Z,50.96
2017-05-08T04:12:30.490Z,51.15
2017-05-08T04:13:30.522Z,50.96
2017-05-08T04:14:30.797Z,51.05
2017-05-08T04:15:30.571Z,51.15
2017-05-08T04:16:30.289Z,50.96
2017-05-08T04:17:30.621Z,50.96
2017-05-08T04:18:30.683Z,50.96
2017-05-08T04:19:30.677Z,51.15
2017-05-08T04:20:30.707Z,51.15
2017-05-08T04:21:30.731Z,50.74
2017-05-08T04:22:30.760Z,51.15
2017-05-08T04:23:30.817Z,50.96
2017-05-08T04:24:30.843Z,51.15
2017-05-08T04:25:30.845Z,50.96
2017-05-08T04:26:30.556Z,50.96
2017-05-08T04:27:30.896Z,50.96
2017-05-08T04:28:30.921Z,50.96
2017-05-08T04:29:30.951Z,50.96
2017-05-08T04:30:30.976Z,51.05
2017-05-08T04:31:30.688Z,50.96
2017-05-08T04:32:30.725Z,51.05
2017-05-08T04:33:31.057Z,51.05
2017-05-08T04:34:30.775Z,51.05
2017-05-08T04:35:31.111Z,50.96
2017-05-08T04:36:31.142Z,50.96
2017-05-08T04:37:30.850Z,50.57
2017-05-08T04:38:31.198Z,51.25
2017-05-08T04:39:31.226Z,50.96
2017-05-08T04:40:31.251Z,50.67
2017-05-08T04:41:31.280Z,50.76
2017-05-08T04:42:31.304Z,50.38
2017-05-08T04:43:31.321Z,50.76
2017-05-08T04:44:31.361Z,50.76
2017-05-08T04:45:31.385Z,50.47
2017-05-08T04:46:31.411Z,50.47
2017-05-08T04:47:31.440Z,50.57
2017-05-08T04:48:31.460Z,50.57
2017-05-08T04:49:31.177Z,50.38
2017-05-08T04:50:31.205Z,50.28
2017-05-08T04:51:31.547Z,50.47
2017-05-08T04:52:31.576Z,50.47
2017-05-08T04:53:31.597Z,50.57
2017-05-08T04:54:31.631Z,50.38
2017-05-08T04:55:31.654Z,50.38
2017-05-08T04:56:31.683Z,50.28
2017-05-08T04:57:31.706Z,50.76
2017-05-08T04:58:31.729Z,50.28
2017-05-08T04:59:31.766Z,49.99
2017-05-08T05:00:31.789Z,50.38
2017-05-08T05:01:31.507Z,50.76
2017-05-08T05:02:31.845Z,50.67
2017-05-08T05:03:31.875Z,50.18
2017-05-08T05:04:31.590Z,50.28
2017-05-08T05:05:32.182Z,50.38
2017-05-08T05:06:31.642Z,50.76
2017-05-08T05:07:31.982Z,50.47
2017-05-08T05:08:32.009Z,49.99
2017-05-08T05:09:32.037Z,50.11
2017-05-08T05:10:32.317Z,50.76
2017-05-08T05:11:32.090Z,50.67
2017-05-08T05:12:32.115Z,50.57
2017-05-08T05:13:31.832Z,50.67
2017-05-08T05:14:32.169Z,50.57
2017-05-08T05:15:32.443Z,50.28
2017-05-08T05:16:32.227Z,50.5
2017-05-08T05:17:32.244Z,50.69
2017-05-08T05:18:31.964Z,50.69
2017-05-08T05:19:31.988Z,50.31
2017-05-08T05:20:32.581Z,50.4
2017-05-08T05:21:32.046Z,50.4
2017-05-08T05:22:32.383Z,50.4
2017-05-08T05:23:32.104Z,50.4
2017-05-08T05:24:32.129Z,50.4
2017-05-08T05:25:32.721Z,50.21
2017-05-08T05:26:32.499Z,50.69
2017-05-08T05:27:32.532Z,50.4
2017-05-08T05:28:32.553Z,50.11
2017-05-08T05:29:32.572Z,50.5
2017-05-08T05:30:32.857Z,50.11
2017-05-08T05:31:32.638Z,50.5
2017-05-08T05:32:32.662Z,50.69
2017-05-08T05:33:32.686Z,50.5
2017-05-08T05:34:32.724Z,50.21
2017-05-08T05:35:32.747Z,50.11
2017-05-08T05:36:32.781Z,50.11
2017-05-08T05:37:32.486Z,50.31
2017-05-08T05:38:32.819Z,50.01
2017-05-08T05:39:32.848Z,50.52
2017-05-08T05:40:32.882Z,50.33
2017-05-08T05:41:32.947Z,50.5
2017-05-08T05:42:32.925Z,49.46
2017-05-08T05:43:32.962Z,49.75
2017-05-08T05:44:32.989Z,50.33
2017-05-08T05:45:33.017Z,50.23
2017-05-08T05:46:33.046Z,50.43
2017-05-08T05:47:33.075Z,50.13
2017-05-08T05:48:33.104Z,50.04
2017-05-08T05:49:33.125Z,50.23
2017-05-08T05:50:32.840Z,49.65
2017-05-08T05:51:32.868Z,49.85
2017-05-08T05:52:33.211Z,49.46
2017-05-08T05:53:33.236Z,50.04
2017-05-08T05:54:33.264Z,50.43
2017-05-08T05:55:33.285Z,49.65
2017-05-08T05:56:33.317Z,49.75
2017-05-08T05:57:33.342Z,49.37
2017-05-08T05:58:33.375Z,49.46
2017-05-08T05:59:33.087Z,49.55
2017-05-08T06:00:33.109Z,49.27
2017-05-08T06:01:33.457Z,49.27
2017-05-08T06:02:33.482Z,49.07
2017-05-08T06:03:33.199Z,48.97
2017-05-08T06:04:33.227Z,49.07
2017-05-08T06:05:33.563Z,49.07
2017-05-08T06:06:33.593Z,49.27
2017-05-08T06:07:33.306Z,49.07
2017-05-08T06:08:33.647Z,49.27
2017-05-08T06:09:33.677Z,49.17
2017-05-08T06:10:33.709Z,49.27
2017-05-08T06:11:33.734Z,49.46
2017-05-08T06:12:33.761Z,49.27
2017-05-08T06:13:33.471Z,49.37
2017-05-08T06:14:33.812Z,49.27
2017-05-08T06:15:33.845Z,49.17
2017-05-08T06:16:33.869Z,49.46
2017-05-08T06:17:33.897Z,49.17
2017-05-08T06:18:33.923Z,49.07
2017-05-08T06:19:33.953Z,49.07
2017-05-08T06:20:33.984Z,48.97
2017-05-08T06:21:34.004Z,49.46
2017-05-08T06:22:34.039Z,49.27
2017-05-08T06:23:34.060Z,48.79
2017-05-08T06:24:34.084Z,49.07
2017-05-08T06:25:33.805Z,49.17
2017-05-08T06:26:34.144Z,48.79
2017-05-08T06:27:34.169Z,48.88
2017-05-08T06:28:34.197Z,49.27
2017-05-08T06:29:33.915Z,48.69
2017-05-08T06:30:34.251Z,49.07
2017-05-08T06:31:34.281Z,49.17
2017-05-08T06:32:34.310Z,49.17
2017-05-08T06:33:34.335Z,49.37
2017-05-08T06:34:34.363Z,49.37
2017-05-08T06:35:34.391Z,49.37
2017-05-08T06:36:34.416Z,49.27
2017-05-08T06:37:34.445Z,49.37
2017-05-08T06:38:34.170Z,48.88
2017-05-08T06:39:34.500Z,49.27
2017-05-08T06:40:34.215Z,48.79
2017-05-08T06:41:34.491Z,48.69
2017-05-08T06:42:34.580Z,49.27
2017-05-08T06:43:34.617Z,49.37
2017-05-08T06:44:34.326Z,48.97
2017-05-08T06:45:34.343Z,48.88
2017-05-08T06:46:34.941Z,49.27
2017-05-08T06:47:34.722Z,49.27
2017-05-08T06:48:34.749Z,49.27
2017-05-08T06:49:34.777Z,48.79
2017-05-08T06:50:34.800Z,48.69
2017-05-08T06:51:34.771Z,49.27
2017-05-08T06:52:34.857Z,49.17
2017-05-08T06:53:34.886Z,49.27
2017-05-08T06:54:34.915Z,49.27
2017-05-08T06:55:34.937Z,48.79
2017-05-08T06:56:34.908Z,48.79
2017-05-08T06:57:34.680Z,48.79
2017-05-08T06:58:35.027Z,49.27
2017-05-08T06:59:35.050Z,48.69
2017-05-08T07:00:35.075Z,48.79
2017-05-08T07:01:35.358Z,49.17
2017-05-08T07:02:34.821Z,49.27
2017-05-08T07:03:34.850Z,48.97
2017-05-08T07:04:35.186Z,48.97
2017-05-08T07:05:35.206Z,49.07
2017-05-08T07:06:35.486Z,48.97
2017-05-08T07:07:35.269Z,49.07
2017-05-08T07:08:35.302Z,48.79
2017-05-08T07:09:35.319Z,48.79
2017-05-08T07:10:35.347Z,48.88
2017-05-08T07:11:35.632Z,48.88
2017-05-08T07:12:35.407Z,49.07
2017-05-08T07:13:35.434Z,49.07
2017-05-08T07:14:35.462Z,48.69
2017-05-08T07:15:35.483Z,48.69
2017-05-08T07:16:35.764Z,48.79
2017-05-08T07:17:35.547Z,49.07
2017-05-08T07:18:35.261Z,48.69
2017-05-08T07:19:35.598Z,49.17
2017-05-08T07:20:35.310Z,48.88
2017-05-08T07:21:35.908Z,48.57
2017-05-08T07:22:35.368Z,48.66
2017-05-08T07:23:35.708Z,49.07
2017-05-08T07:24:35.729Z,49.05
2017-05-08T07:25:35.759Z,48.76
2017-05-08T07:26:35.477Z,48.86
2017-05-08T07:27:35.839Z,48.76
2017-05-08T07:28:35.539Z,48.86
2017-05-08T07:29:35.873Z,48.88
2017-05-08T07:30:35.894Z,48.86
2017-05-08T07:31:35.927Z,48.95
2017-05-08T07:32:35.950Z,48.95
2017-05-08T07:33:35.673Z,48.95
2017-05-08T07:34:35.696Z,49.17
2017-05-08T07:35:35.726Z,48.57
2017-05-08T07:36:35.754Z,48.59
2017-05-08T07:37:35.780Z,48.59
2017-05-08T07:38:36.119Z,49.15
2017-05-08T07:39:36.140Z,48.95
2017-05-08T07:40:36.174Z,48.76
2017-05-08T07:41:36.204Z,49.05
2017-05-08T07:42:36.228Z,49.24
2017-05-08T07:43:36.256Z,48.95
2017-05-08T07:44:36.284Z,48.57
2017-05-08T07:45:36.342Z,49.05
2017-05-08T07:46:36.338Z,48.86
2017-05-08T07:47:36.379Z,48.76
2017-05-08T07:48:36.392Z,48.66
2017-05-08T07:49:36.420Z,48.95
2017-05-08T07:50:36.453Z,49.05
2017-05-08T07:51:36.478Z,49.05
2017-05-08T07:52:36.191Z,48.66
2017-05-08T07:53:36.527Z,49.05
2017-05-08T07:54:36.246Z,48.76
2017-05-08T07:55:36.585Z,48.76
2017-05-08T07:56:36.613Z,48.95
2017-05-08T07:57:36.641Z,49.05
2017-05-08T07:58:36.668Z,48.76
2017-05-08T07:59:36.696Z,48.86
2017-05-08T08:00:36.413Z,49.05
2017-05-08T08:01:36.749Z,48.86
2017-05-08T08:02:36.774Z,48.86
2017-05-08T08:03:36.807Z,49.05
2017-05-08T08:04:36.833Z,49.05
2017-05-08T08:05:36.861Z,48.66
2017-05-08T08:06:36.890Z,49.05
2017-05-08T08:07:36.914Z,49.05
2017-05-08T08:08:36.944Z,48.95
2017-05-08T08:09:36.968Z,48.86
2017-05-08T08:10:36.997Z,48.66
2017-05-08T08:11:37.018Z,48.76
2017-05-08T08:12:36.737Z,48.95
2017-05-08T08:13:37.074Z,49.05
2017-05-08T08:14:37.108Z,48.95
2017-05-08T08:15:37.133Z,48.95
2017-05-08T08:16:37.161Z,48.86
2017-05-08T08:17:37.195Z,48.86
2017-05-08T08:18:37.217Z,49.15
2017-05-08T08:19:37.240Z,49.24
2017-05-08T08:20:36.960Z,48.86
2017-05-08T08:21:37.289Z,49.05
2017-05-08T08:22:37.323Z,49.15
2017-05-08T08:23:37.353Z,48.76
2017-05-08T08:24:37.381Z,48.76
2017-05-08T08:25:37.410Z,49.24
2017-05-08T08:26:37.432Z,49.05
2017-05-08T08:27:37.714Z,48.76
2017-05-08T08:28:37.180Z,48.66
2017-05-08T08:29:37.511Z,49.05
2017-05-08T08:30:37.539Z,49.05
2017-05-08T08:31:37.565Z,49.05
2017-05-08T08:32:37.885Z,48.95
2017-05-08T08:33:37.626Z,49.15
2017-05-08T08:34:37.653Z,49.05
2017-05-08T08:35:37.683Z,49.05
2017-05-08T08:36:37.704Z,49.15
2017-05-08T08:37:37.986Z,49.05
2017-05-08T08:38:37.765Z,48.57
2017-05-08T08:39:37.791Z,48.76
2017-05-08T08:40:37.815Z,49.05
2017-05-08T08:41:37.528Z,48.95
2017-05-08T08:42:38.125Z,48.95
2017-05-08T08:43:37.898Z,48.76
2017-05-08T08:44:37.922Z,48.57
2017-05-08T08:45:37.957Z,48.76
2017-05-08T08:46:37.668Z,49.15
2017-05-08T08:47:37.949Z,48.95
2017-05-08T08:48:38.033Z,48.76
2017-05-08T08:49:38.062Z,48.76
2017-05-08T08:50:38.085Z,48.76
2017-05-08T08:51:38.116Z,48.57
2017-05-08T08:52:38.397Z,48.76
2017-05-08T08:53:38.171Z,48.76
2017-05-08T08:54:38.199Z,48.76
2017-05-08T08:55:38.227Z,48.57
2017-05-08T08:56:38.261Z,48.76
2017-05-08T08:57:38.532Z,48.57
2017-05-08T08:58:38.310Z,48.66
2017-05-08T08:59:38.031Z,48.66
2017-05-08T09:00:38.372Z,48.66
2017-05-08T09:01:38.392Z,48.95
2017-05-08T09:02:38.669Z,48.95
2017-05-08T09:03:38.455Z,48.86
2017-05-08T09:04:38.470Z,49.15
2017-05-08T09:05:38.510Z,48.95
2017-05-08T09:06:38.224Z,49.05
2017-05-08T09:07:38.496Z,49.15
2017-05-08T09:08:38.581Z,49.05
2017-05-08T09:09:38.298Z,48.57
2017-05-08T09:10:38.635Z,48.57
2017-05-08T09:11:38.663Z,48.37
2017-05-08T09:12:38.948Z,48.57
2017-05-08T09:13:38.728Z,48.66
2017-05-08T09:14:38.746Z,48.66
2017-05-08T09:15:38.775Z,47.99
2017-05-08T09:16:38.800Z,48.28
2017-05-08T09:17:38.832Z,48.57
2017-05-08T09:18:38.856Z,48.57
2017-05-08T09:19:38.574Z,48.57
2017-05-08T09:20:38.598Z,48.57
2017-05-08T09:21:38.934Z,48.47
2017-05-08T09:22:38.960Z,48.28
2017-05-08T09:23:38.681Z,48.57
2017-05-08T09:24:39.021Z,48.66
2017-05-08T09:25:38.733Z,47.99
2017-05-08T09:26:38.763Z,48.28
2017-05-08T09:27:39.093Z,48.37
2017-05-08T09:28:39.128Z,48.28
2017-05-08T09:29:38.837Z,47.99
2017-05-08T09:30:39.190Z,47.89
2017-05-08T09:31:39.211Z,48.08
2017-05-08T09:32:39.232Z,48.28
2017-05-08T09:33:39.264Z,48.18
2017-05-08T09:34:39.293Z,48.28
2017-05-08T09:35:39.007Z,48.18
2017-05-08T09:36:39.344Z,48.57
2017-05-08T09:37:39.368Z,48.57
2017-05-08T09:38:39.408Z,48.47
2017-05-08T09:39:39.117Z,48.66
2017-05-08T09:40:39.154Z,48.57
2017-05-08T09:41:39.490Z,48.66
2017-05-08T09:42:39.512Z,48.76
2017-05-08T09:43:39.540Z,48.47
2017-05-08T09:44:39.569Z,48.47
2017-05-08T09:45:39.595Z,48.47
2017-05-08T09:46:39.623Z,48.37
2017-05-08T09:47:39.340Z,48.08
2017-05-08T09:48:39.677Z,48.08
2017-05-08T09:49:39.709Z,48.08
2017-05-08T09:50:39.729Z,47.99
2017-05-08T09:51:39.766Z,48.08
2017-05-08T09:52:39.787Z,47.99
2017-05-08T09:53:39.812Z,47.7
2017-05-08T09:54:39.844Z,48.18
2017-05-08T09:55:39.865Z,47.7
2017-05-08T09:56:39.582Z,47.89
2017-05-08T09:57:39.917Z,47.99
2017-05-08T09:58:39.952Z,48.18
2017-05-08T09:59:39.972Z,47.99
2017-05-08T10:00:40.005Z,47.99
2017-05-08T10:01:40.029Z,48.18
2017-05-08T10:02:40.059Z,48.08
2017-05-08T10:03:40.091Z,47.99
2017-05-08T10:04:40.111Z,48.18
2017-05-08T10:05:39.828Z,48.28
2017-05-08T10:06:40.166Z,48.08
2017-05-08T10:07:39.883Z,47.99
2017-05-08T10:08:40.229Z,47.99
2017-05-08T10:09:40.247Z,48.47
2017-05-08T10:10:40.276Z,47.99
2017-05-08T10:11:40.302Z,47.7
2017-05-08T10:12:40.332Z,48.18
2017-05-08T10:13:40.362Z,48.08
2017-05-08T10:14:40.386Z,47.8
2017-05-08T10:15:40.103Z,47.6
2017-05-08T10:16:40.444Z,47.8
2017-05-08T10:17:40.471Z,47.7
2017-05-08T10:18:40.182Z,48.08
2017-05-08T10:19:40.527Z,47.8
2017-05-08T10:20:40.235Z,47.5
2017-05-08T10:21:40.265Z,47.5
2017-05-08T10:22:40.614Z,47.7
2017-05-08T10:23:40.639Z,47.6
2017-05-08T10:24:40.663Z,47.6
2017-05-08T10:25:40.692Z,47.89
2017-05-08T10:26:40.717Z,47.8
2017-05-08T10:27:40.745Z,47.7
2017-05-08T10:28:40.771Z,47.5
2017-05-08T10:29:40.799Z,47.8
2017-05-08T10:30:40.829Z,47.6
2017-05-08T10:31:40.856Z,47.5
2017-05-08T10:32:40.881Z,47.41
2017-05-08T10:33:41.162Z,47.6
2017-05-08T10:34:40.626Z,47.7
2017-05-08T10:35:40.964Z,47.7
2017-05-08T10:36:40.993Z,47.41
2017-05-08T10:37:41.022Z,47.41
2017-05-08T10:38:41.293Z,47.41
2017-05-08T10:39:40.765Z,47.31
2017-05-08T10:40:41.106Z,47.12
2017-05-08T10:41:41.127Z,47.7
2017-05-08T10:42:41.165Z,47.31
2017-05-08T10:43:41.433Z,47.6
2017-05-08T10:44:40.889Z,47.41
2017-05-08T10:45:41.238Z,47.41
2017-05-08T10:46:41.269Z,47.12
2017-05-08T10:47:41.292Z,47.5
2017-05-08T10:48:41.568Z,47.22
2017-05-08T10:49:41.038Z,47.5
2017-05-08T10:50:41.376Z,47.6
2017-05-08T10:51:41.402Z,47.8
2017-05-08T10:52:41.432Z,47.31
2017-05-08T10:53:41.713Z,47.41
2017-05-08T10:54:41.177Z,47.8
2017-05-08T10:55:41.514Z,47.5
2017-05-08T10:56:41.538Z,47.6
2017-05-08T10:57:41.571Z,47.31
2017-05-08T10:58:41.849Z,47.5
2017-05-08T10:59:41.669Z,47.7
2017-05-08T11:00:41.650Z,47.6
2017-05-08T11:01:41.676Z,47.6
2017-05-08T11:02:41.707Z,47.6
2017-05-08T11:03:41.980Z,47.7
2017-05-08T11:04:41.760Z,47.5
2017-05-08T11:05:41.786Z,47.31
2017-05-08T11:06:41.814Z,47.6
2017-05-08T11:07:41.844Z,47.5
2017-05-08T11:08:41.837Z,47.41
2017-05-08T11:09:41.584Z,47.6
2017-05-08T11:10:41.926Z,47.7
2017-05-08T11:11:41.953Z,47.41
2017-05-08T11:12:41.668Z,47.31
2017-05-08T11:13:42.260Z,47.41
2017-05-08T11:14:42.036Z,47.7
2017-05-08T11:15:42.066Z,47.41
2017-05-08T11:16:42.087Z,47.41
2017-05-08T11:17:41.806Z,47.8
2017-05-08T11:18:42.399Z,47.31
2017-05-08T11:19:42.174Z,47.41
2017-05-08T11:20:42.202Z,47.31
2017-05-08T11:21:42.225Z,47.31
2017-05-08T11:22:42.263Z,47.12
2017-05-08T11:23:42.534Z,47.6
2017-05-08T11:24:42.309Z,47.5
2017-05-08T11:25:42.339Z,47.6
2017-05-08T11:26:42.046Z,47.5
2017-05-08T11:27:42.388Z,47.6
2017-05-08T11:28:42.669Z,47.7
2017-05-08T11:29:42.448Z,47.5
2017-05-08T11:30:42.167Z,47.6
2017-05-08T11:31:42.189Z,47.31
2017-05-08T11:32:42.528Z,47.6
2017-05-08T11:33:42.810Z,47.8
2017-05-08T11:34:42.584Z,47.6
2017-05-08T11:35:42.300Z,47.41
2017-05-08T11:36:42.637Z,47.7
2017-05-08T11:37:42.666Z,47.6
2017-05-08T11:38:42.943Z,47.5
2017-05-08T11:39:42.729Z,47.41
2017-05-08T11:40:42.748Z,47.8
2017-05-08T11:41:42.773Z,47.12
2017-05-08T11:42:42.810Z,47.41
2017-05-08T11:43:42.831Z,47.7
2017-05-08T11:44:42.860Z,47.31
2017-05-08T11:45:42.889Z,47.31
2017-05-08T11:46:42.918Z,47.8
2017-05-08T11:47:42.956Z,47.31
2017-05-08T11:48:42.656Z,47.12
2017-05-08T11:49:43.001Z,47.41
2017-05-08T11:50:43.027Z,47.31
2017-05-08T11:51:43.053Z,47.31
2017-05-08T11:52:43.081Z,47.31
2017-05-08T11:53:43.107Z,47.41
2017-05-08T11:54:43.136Z,47.41
2017-05-08T11:55:43.164Z,47.31
2017-05-08T11:56:42.884Z,47.22
2017-05-08T11:57:43.250Z,47.31
2017-05-08T11:58:43.243Z,47.12
2017-05-08T11:59:43.271Z,47.12
2017-05-08T12:00:43.304Z,47.12
2017-05-08T12:01:43.017Z,47.02
2017-05-08T12:02:43.355Z,47.22
2017-05-08T12:03:43.384Z,47.12
2017-05-08T12:04:43.410Z,47.22
2017-05-08T12:05:43.437Z,47.41
2017-05-08T12:06:43.153Z,47.12
2017-05-08T12:07:43.492Z,47.12
2017-05-08T12:08:43.519Z,47.31
2017-05-08T12:09:43.547Z,47.22
2017-05-08T12:10:43.575Z,47.31
2017-05-08T12:11:43.293Z,47.12
2017-05-08T12:12:43.629Z,47.31
2017-05-08T12:13:43.655Z,47.12
2017-05-08T12:14:43.686Z,47.22
2017-05-08T12:15:43.713Z,47.22
2017-05-08T12:16:43.428Z,47.31
2017-05-08T12:17:43.458Z,47.5
2017-05-08T12:18:43.793Z,47.12
2017-05-08T12:19:43.824Z,47.41
2017-05-08T12:20:43.851Z,47.31
2017-05-08T12:21:43.876Z,47.22
2017-05-08T12:22:43.901Z,47.5
2017-05-08T12:23:43.926Z,47.5
2017-05-08T12:24:44.215Z,47.12
2017-05-08T12:25:43.987Z,47.6
2017-05-08T12:26:44.039Z,47.6
2017-05-08T12:27:43.729Z,47.31
2017-05-08T12:28:43.752Z,47.22
2017-05-08T12:29:44.346Z,47.31
2017-05-08T12:30:44.127Z,47.31
2017-05-08T12:31:44.152Z,47.41
2017-05-08T12:32:44.183Z,47.41
2017-05-08T12:33:43.894Z,47.41
2017-05-08T12:34:44.485Z,47.41
2017-05-08T12:35:44.288Z,47.12
2017-05-08T12:36:44.292Z,47.29
2017-05-08T12:37:44.004Z,47.31
2017-05-08T12:38:44.346Z,47.38
2017-05-08T12:39:44.308Z,47.31
2017-05-08T12:40:44.399Z,47.02
2017-05-08T12:41:44.428Z,47.29
2017-05-08T12:42:44.457Z,47.31
2017-05-08T12:43:44.168Z,47.7
2017-05-08T12:44:44.450Z,47.48
2017-05-08T12:45:44.545Z,47.29
2017-05-08T12:46:44.561Z,47.29
2017-05-08T12:47:44.596Z,47.09
2017-05-08T12:48:44.304Z,47.31
2017-05-08T12:49:44.896Z,47.29
2017-05-08T12:50:44.674Z,47.41
2017-05-08T12:51:44.399Z,47.09
2017-05-08T12:52:44.728Z,47.19
2017-05-08T12:53:44.761Z,47.41
2017-05-08T12:54:44.772Z,47.09
2017-05-08T12:55:44.811Z,47.09